sensor_id;sensor_type;location;lat;lon;timestamp;P1;durP1;ratioP1;P2;durP2;ratioP2
4464;SDS011;2245;48.136;13.428;2023-03-23T00:00:09;7.30;;;5.20;;
4464;SDS011;2245;48.136;13.428;2023-03-23T00:02:38;9.60;;;5.43;;
4464;SDS011;2245;48.136;13.428;2023-03-23T00:05:05;6.30;;;5.13;;
4464;SDS011;2245;48.136;13.428;2023-03-23T00:07:33;6.90;;;5.00;;
4464;SDS011;2245;48.136;13.428;2023-03-23T00:10:01;8.50;;;5.17;;
4464;SDS011;2245;48.136;13.428;2023-03-23T00:12:29;14.67;;;5.70;;
4464;SDS011;2245;48.136;13.428;2023-03-23T00:14:59;12.07;;;6.33;;
4464;SDS011;2245;48.136;13.428;2023-03-23T00:17:27;10.20;;;5.33;;
4464;SDS011;2245;48.136;13.428;2023-03-23T00:19:55;10.57;;;6.00;;
4464;SDS011;2245;48.136;13.428;2023-03-23T00:22:22;9.40;;;5.37;;
4464;SDS011;2245;48.136;13.428;2023-03-23T00:24:50;8.93;;;5.87;;
4464;SDS011;2245;48.136;13.428;2023-03-23T00:27:17;8.37;;;5.77;;
4464;SDS011;2245;48.136;13.428;2023-03-23T00:29:47;9.17;;;5.53;;
4464;SDS011;2245;48.136;13.428;2023-03-23T00:32:18;8.30;;;5.53;;
4464;SDS011;2245;48.136;13.428;2023-03-23T00:34:46;8.13;;;4.53;;
4464;SDS011;2245;48.136;13.428;2023-03-23T00:37:14;6.73;;;4.50;;
4464;SDS011;2245;48.136;13.428;2023-03-23T00:39:42;9.47;;;5.07;;
4464;SDS011;2245;48.136;13.428;2023-03-23T00:42:11;7.57;;;4.93;;
4464;SDS011;2245;48.136;13.428;2023-03-23T00:44:39;6.40;;;5.17;;
4464;SDS011;2245;48.136;13.428;2023-03-23T00:47:06;12.23;;;5.10;;
4464;SDS011;2245;48.136;13.428;2023-03-23T00:49:35;8.13;;;4.97;;
4464;SDS011;2245;48.136;13.428;2023-03-23T00:52:03;7.60;;;4.83;;
4464;SDS011;2245;48.136;13.428;2023-03-23T00:54:32;10.67;;;5.03;;
4464;SDS011;2245;48.136;13.428;2023-03-23T00:57:00;9.27;;;5.30;;
4464;SDS011;2245;48.136;13.428;2023-03-23T00:59:27;6.63;;;5.10;;
4464;SDS011;2245;48.136;13.428;2023-03-23T01:01:54;7.77;;;5.20;;
4464;SDS011;2245;48.136;13.428;2023-03-23T01:04:21;8.00;;;4.97;;
4464;SDS011;2245;48.136;13.428;2023-03-23T01:06:48;10.70;;;6.20;;
4464;SDS011;2245;48.136;13.428;2023-03-23T01:09:17;11.77;;;6.30;;
4464;SDS011;2245;48.136;13.428;2023-03-23T01:11:48;11.83;;;5.07;;
4464;SDS011;2245;48.136;13.428;2023-03-23T01:14:16;8.90;;;5.10;;
4464;SDS011;2245;48.136;13.428;2023-03-23T01:16:44;6.77;;;5.30;;
4464;SDS011;2245;48.136;13.428;2023-03-23T01:19:11;7.83;;;5.20;;
4464;SDS011;2245;48.136;13.428;2023-03-23T01:21:38;7.90;;;4.93;;
4464;SDS011;2245;48.136;13.428;2023-03-23T01:24:06;11.87;;;5.27;;
4464;SDS011;2245;48.136;13.428;2023-03-23T01:26:33;5.80;;;5.00;;
4464;SDS011;2245;48.136;13.428;2023-03-23T01:29:01;5.60;;;4.77;;
4464;SDS011;2245;48.136;13.428;2023-03-23T01:31:29;11.23;;;5.30;;
4464;SDS011;2245;48.136;13.428;2023-03-23T01:33:56;6.47;;;4.80;;
4464;SDS011;2245;48.136;13.428;2023-03-23T01:36:24;9.70;;;4.23;;
4464;SDS011;2245;48.136;13.428;2023-03-23T01:38:54;9.77;;;5.33;;
4464;SDS011;2245;48.136;13.428;2023-03-23T01:41:23;8.57;;;5.17;;
4464;SDS011;2245;48.136;13.428;2023-03-23T01:43:53;9.00;;;4.70;;
4464;SDS011;2245;48.136;13.428;2023-03-23T01:46:28;9.83;;;5.70;;
4464;SDS011;2245;48.136;13.428;2023-03-23T01:48:55;8.20;;;5.03;;
4464;SDS011;2245;48.136;13.428;2023-03-23T01:51:24;10.50;;;5.17;;
4464;SDS011;2245;48.136;13.428;2023-03-23T01:53:52;9.33;;;4.27;;
4464;SDS011;2245;48.136;13.428;2023-03-23T01:56:22;6.20;;;4.57;;
4464;SDS011;2245;48.136;13.428;2023-03-23T01:58:51;4.87;;;4.00;;
4464;SDS011;2245;48.136;13.428;2023-03-23T02:01:20;11.50;;;4.40;;
4464;SDS011;2245;48.136;13.428;2023-03-23T02:03:51;9.00;;;4.77;;
4464;SDS011;2245;48.136;13.428;2023-03-23T02:06:19;8.67;;;5.40;;
4464;SDS011;2245;48.136;13.428;2023-03-23T02:08:47;8.70;;;4.23;;
4464;SDS011;2245;48.136;13.428;2023-03-23T02:11:15;9.33;;;5.10;;
4464;SDS011;2245;48.136;13.428;2023-03-23T02:13:43;6.73;;;4.73;;
4464;SDS011;2245;48.136;13.428;2023-03-23T02:16:13;8.70;;;4.53;;
4464;SDS011;2245;48.136;13.428;2023-03-23T02:18:47;5.83;;;3.80;;
4464;SDS011;2245;48.136;13.428;2023-03-23T02:21:34;8.93;;;4.03;;
4464;SDS011;2245;48.136;13.428;2023-03-23T02:27:20;9.40;;;3.87;;
4464;SDS011;2245;48.136;13.428;2023-03-23T02:30:13;6.00;;;3.50;;
4464;SDS011;2245;48.136;13.428;2023-03-23T02:32:52;5.10;;;3.93;;
4464;SDS011;2245;48.136;13.428;2023-03-23T02:35:44;4.40;;;3.10;;
4464;SDS011;2245;48.136;13.428;2023-03-23T02:38:13;9.33;;;4.33;;
4464;SDS011;2245;48.136;13.428;2023-03-23T02:40:42;5.20;;;3.90;;
4464;SDS011;2245;48.136;13.428;2023-03-23T02:43:11;6.40;;;3.57;;
4464;SDS011;2245;48.136;13.428;2023-03-23T02:45:40;7.17;;;3.63;;
4464;SDS011;2245;48.136;13.428;2023-03-23T02:48:08;7.40;;;3.70;;
4464;SDS011;2245;48.136;13.428;2023-03-23T02:50:38;6.10;;;4.00;;
4464;SDS011;2245;48.136;13.428;2023-03-23T02:53:07;7.23;;;4.47;;
4464;SDS011;2245;48.136;13.428;2023-03-23T02:55:36;5.77;;;3.90;;
4464;SDS011;2245;48.136;13.428;2023-03-23T02:58:07;6.13;;;3.80;;
4464;SDS011;2245;48.136;13.428;2023-03-23T03:00:34;3.80;;;3.00;;
4464;SDS011;2245;48.136;13.428;2023-03-23T03:03:01;6.50;;;3.97;;
4464;SDS011;2245;48.136;13.428;2023-03-23T03:05:31;7.90;;;3.50;;
4464;SDS011;2245;48.136;13.428;2023-03-23T03:08:07;7.83;;;3.90;;
4464;SDS011;2245;48.136;13.428;2023-03-23T03:10:40;6.40;;;3.80;;
4464;SDS011;2245;48.136;13.428;2023-03-23T03:13:11;7.57;;;4.50;;
4464;SDS011;2245;48.136;13.428;2023-03-23T03:15:44;8.10;;;3.20;;
4464;SDS011;2245;48.136;13.428;2023-03-23T03:18:15;9.50;;;4.53;;
4464;SDS011;2245;48.136;13.428;2023-03-23T03:20:47;7.63;;;4.10;;
4464;SDS011;2245;48.136;13.428;2023-03-23T03:23:17;11.87;;;3.90;;
4464;SDS011;2245;48.136;13.428;2023-03-23T03:25:44;6.50;;;4.20;;
4464;SDS011;2245;48.136;13.428;2023-03-23T03:28:13;5.50;;;4.30;;
4464;SDS011;2245;48.136;13.428;2023-03-23T03:30:41;6.77;;;4.00;;
4464;SDS011;2245;48.136;13.428;2023-03-23T03:33:10;8.67;;;5.37;;
4464;SDS011;2245;48.136;13.428;2023-03-23T03:35:37;8.83;;;4.50;;
4464;SDS011;2245;48.136;13.428;2023-03-23T03:38:06;14.07;;;4.13;;
4464;SDS011;2245;48.136;13.428;2023-03-23T03:40:36;7.57;;;4.07;;
4464;SDS011;2245;48.136;13.428;2023-03-23T03:43:03;7.87;;;4.53;;
4464;SDS011;2245;48.136;13.428;2023-03-23T03:45:30;6.37;;;4.70;;
4464;SDS011;2245;48.136;13.428;2023-03-23T03:47:57;7.43;;;3.57;;
4464;SDS011;2245;48.136;13.428;2023-03-23T03:50:25;7.23;;;3.53;;
4464;SDS011;2245;48.136;13.428;2023-03-23T03:52:52;6.50;;;3.93;;
4464;SDS011;2245;48.136;13.428;2023-03-23T03:55:19;6.80;;;4.20;;
4464;SDS011;2245;48.136;13.428;2023-03-23T03:57:47;9.17;;;4.63;;
4464;SDS011;2245;48.136;13.428;2023-03-23T04:00:14;6.70;;;3.80;;
4464;SDS011;2245;48.136;13.428;2023-03-23T04:02:42;5.40;;;3.83;;
4464;SDS011;2245;48.136;13.428;2023-03-23T04:05:12;5.10;;;4.50;;
4464;SDS011;2245;48.136;13.428;2023-03-23T04:07:39;8.17;;;4.60;;
4464;SDS011;2245;48.136;13.428;2023-03-23T04:10:07;7.23;;;4.90;;
4464;SDS011;2245;48.136;13.428;2023-03-23T04:12:37;7.10;;;4.10;;
4464;SDS011;2245;48.136;13.428;2023-03-23T04:15:05;3.60;;;3.30;;
4464;SDS011;2245;48.136;13.428;2023-03-23T04:17:33;16.70;;;4.33;;
4464;SDS011;2245;48.136;13.428;2023-03-23T04:20:00;11.13;;;4.27;;
4464;SDS011;2245;48.136;13.428;2023-03-23T04:22:33;8.23;;;4.17;;
4464;SDS011;2245;48.136;13.428;2023-03-23T04:25:00;7.90;;;4.27;;
4464;SDS011;2245;48.136;13.428;2023-03-23T04:27:31;8.10;;;3.90;;
4464;SDS011;2245;48.136;13.428;2023-03-23T04:29:59;29.40;;;4.87;;
4464;SDS011;2245;48.136;13.428;2023-03-23T04:32:27;5.00;;;3.73;;
4464;SDS011;2245;48.136;13.428;2023-03-23T04:34:55;8.17;;;3.97;;
4464;SDS011;2245;48.136;13.428;2023-03-23T04:37:23;6.57;;;4.50;;
4464;SDS011;2245;48.136;13.428;2023-03-23T04:39:54;4.60;;;3.37;;
4464;SDS011;2245;48.136;13.428;2023-03-23T04:42:26;4.30;;;2.67;;
4464;SDS011;2245;48.136;13.428;2023-03-23T04:44:54;7.30;;;3.50;;
4464;SDS011;2245;48.136;13.428;2023-03-23T04:47:21;5.50;;;3.97;;
4464;SDS011;2245;48.136;13.428;2023-03-23T04:49:49;12.93;;;4.70;;
4464;SDS011;2245;48.136;13.428;2023-03-23T04:52:17;9.70;;;4.50;;
4464;SDS011;2245;48.136;13.428;2023-03-23T04:54:45;6.10;;;3.70;;
4464;SDS011;2245;48.136;13.428;2023-03-23T04:57:12;6.60;;;4.60;;
4464;SDS011;2245;48.136;13.428;2023-03-23T04:59:40;13.17;;;4.80;;
4464;SDS011;2245;48.136;13.428;2023-03-23T05:02:09;7.20;;;3.83;;
4464;SDS011;2245;48.136;13.428;2023-03-23T05:04:36;9.93;;;4.50;;
4464;SDS011;2245;48.136;13.428;2023-03-23T05:07:04;7.77;;;4.30;;
4464;SDS011;2245;48.136;13.428;2023-03-23T05:09:31;9.73;;;4.37;;
4464;SDS011;2245;48.136;13.428;2023-03-23T05:12:02;5.77;;;4.20;;
4464;SDS011;2245;48.136;13.428;2023-03-23T05:14:30;9.50;;;3.90;;
4464;SDS011;2245;48.136;13.428;2023-03-23T05:16:57;7.07;;;5.50;;
4464;SDS011;2245;48.136;13.428;2023-03-23T05:19:24;6.03;;;3.63;;
4464;SDS011;2245;48.136;13.428;2023-03-23T05:21:51;9.23;;;4.60;;
4464;SDS011;2245;48.136;13.428;2023-03-23T05:24:20;5.03;;;3.70;;
4464;SDS011;2245;48.136;13.428;2023-03-23T05:26:47;8.53;;;3.83;;
4464;SDS011;2245;48.136;13.428;2023-03-23T05:29:17;6.40;;;3.40;;
4464;SDS011;2245;48.136;13.428;2023-03-23T05:31:44;8.87;;;5.17;;
4464;SDS011;2245;48.136;13.428;2023-03-23T05:34:11;21.43;;;7.33;;
4464;SDS011;2245;48.136;13.428;2023-03-23T05:36:38;9.40;;;4.63;;
4464;SDS011;2245;48.136;13.428;2023-03-23T05:39:05;15.77;;;6.50;;
4464;SDS011;2245;48.136;13.428;2023-03-23T05:41:33;10.10;;;5.80;;
4464;SDS011;2245;48.136;13.428;2023-03-23T05:44:00;6.97;;;4.10;;
4464;SDS011;2245;48.136;13.428;2023-03-23T05:46:27;10.13;;;6.40;;
4464;SDS011;2245;48.136;13.428;2023-03-23T05:48:54;8.60;;;5.20;;
4464;SDS011;2245;48.136;13.428;2023-03-23T05:51:21;9.00;;;5.73;;
4464;SDS011;2245;48.136;13.428;2023-03-23T05:53:49;33.47;;;7.03;;
4464;SDS011;2245;48.136;13.428;2023-03-23T05:56:15;21.33;;;7.90;;
4464;SDS011;2245;48.136;13.428;2023-03-23T05:58:44;13.80;;;7.00;;
4464;SDS011;2245;48.136;13.428;2023-03-23T06:01:11;43.17;;;8.47;;
4464;SDS011;2245;48.136;13.428;2023-03-23T06:03:39;11.63;;;7.17;;
4464;SDS011;2245;48.136;13.428;2023-03-23T06:06:06;25.70;;;7.63;;
4464;SDS011;2245;48.136;13.428;2023-03-23T06:08:33;13.20;;;5.67;;
4464;SDS011;2245;48.136;13.428;2023-03-23T06:11:02;43.27;;;18.07;;
4464;SDS011;2245;48.136;13.428;2023-03-23T06:13:29;205.03;;;62.40;;
4464;SDS011;2245;48.136;13.428;2023-03-23T06:15:57;73.00;;;25.40;;
4464;SDS011;2245;48.136;13.428;2023-03-23T06:18:24;56.73;;;21.03;;
4464;SDS011;2245;48.136;13.428;2023-03-23T06:20:52;27.70;;;12.27;;
4464;SDS011;2245;48.136;13.428;2023-03-23T06:23:19;24.90;;;10.63;;
4464;SDS011;2245;48.136;13.428;2023-03-23T06:25:46;45.80;;;12.00;;
4464;SDS011;2245;48.136;13.428;2023-03-23T06:28:13;18.07;;;9.10;;
4464;SDS011;2245;48.136;13.428;2023-03-23T06:30:40;10.43;;;6.73;;
4464;SDS011;2245;48.136;13.428;2023-03-23T06:33:08;9.90;;;5.60;;
4464;SDS011;2245;48.136;13.428;2023-03-23T06:35:36;16.30;;;6.87;;
4464;SDS011;2245;48.136;13.428;2023-03-23T06:38:03;11.40;;;6.20;;
4464;SDS011;2245;48.136;13.428;2023-03-23T06:40:29;22.07;;;6.80;;
4464;SDS011;2245;48.136;13.428;2023-03-23T06:42:56;16.07;;;8.70;;
4464;SDS011;2245;48.136;13.428;2023-03-23T06:45:24;23.30;;;9.67;;
4464;SDS011;2245;48.136;13.428;2023-03-23T06:47:51;23.00;;;8.50;;
4464;SDS011;2245;48.136;13.428;2023-03-23T06:50:19;7.00;;;5.30;;
4464;SDS011;2245;48.136;13.428;2023-03-23T06:52:46;6.20;;;5.00;;
4464;SDS011;2245;48.136;13.428;2023-03-23T06:55:13;13.03;;;6.43;;
4464;SDS011;2245;48.136;13.428;2023-03-23T06:57:40;18.10;;;10.37;;
4464;SDS011;2245;48.136;13.428;2023-03-23T07:00:08;26.13;;;13.83;;
4464;SDS011;2245;48.136;13.428;2023-03-23T07:02:38;31.07;;;8.90;;
4464;SDS011;2245;48.136;13.428;2023-03-23T07:05:05;19.37;;;8.70;;
4464;SDS011;2245;48.136;13.428;2023-03-23T07:07:35;8.37;;;6.40;;
4464;SDS011;2245;48.136;13.428;2023-03-23T07:10:02;12.40;;;7.57;;
4464;SDS011;2245;48.136;13.428;2023-03-23T07:12:30;13.77;;;8.13;;
4464;SDS011;2245;48.136;13.428;2023-03-23T07:14:58;7.47;;;5.60;;
4464;SDS011;2245;48.136;13.428;2023-03-23T07:17:25;22.43;;;7.50;;
4464;SDS011;2245;48.136;13.428;2023-03-23T07:19:52;18.70;;;8.10;;
4464;SDS011;2245;48.136;13.428;2023-03-23T07:22:19;27.33;;;10.60;;
4464;SDS011;2245;48.136;13.428;2023-03-23T07:24:47;7.33;;;5.53;;
4464;SDS011;2245;48.136;13.428;2023-03-23T07:27:15;12.00;;;5.70;;
4464;SDS011;2245;48.136;13.428;2023-03-23T07:29:41;12.97;;;4.50;;
4464;SDS011;2245;48.136;13.428;2023-03-23T07:32:10;11.63;;;5.03;;
4464;SDS011;2245;48.136;13.428;2023-03-23T07:34:37;7.93;;;5.13;;
4464;SDS011;2245;48.136;13.428;2023-03-23T07:37:04;12.43;;;7.10;;
4464;SDS011;2245;48.136;13.428;2023-03-23T07:39:31;11.60;;;6.20;;
4464;SDS011;2245;48.136;13.428;2023-03-23T07:41:59;12.37;;;4.87;;
4464;SDS011;2245;48.136;13.428;2023-03-23T07:44:26;22.83;;;4.37;;
4464;SDS011;2245;48.136;13.428;2023-03-23T07:46:53;29.63;;;4.40;;
4464;SDS011;2245;48.136;13.428;2023-03-23T07:49:20;9.40;;;3.67;;
4464;SDS011;2245;48.136;13.428;2023-03-23T07:51:47;6.30;;;2.80;;
4464;SDS011;2245;48.136;13.428;2023-03-23T07:54:14;7.17;;;4.20;;
4464;SDS011;2245;48.136;13.428;2023-03-23T07:56:41;3.90;;;2.70;;
4464;SDS011;2245;48.136;13.428;2023-03-23T07:59:11;3.37;;;3.00;;
4464;SDS011;2245;48.136;13.428;2023-03-23T08:01:38;7.93;;;3.77;;
4464;SDS011;2245;48.136;13.428;2023-03-23T08:04:05;9.60;;;6.50;;
4464;SDS011;2245;48.136;13.428;2023-03-23T08:06:32;9.63;;;6.60;;
4464;SDS011;2245;48.136;13.428;2023-03-23T08:09:00;11.53;;;6.13;;
4464;SDS011;2245;48.136;13.428;2023-03-23T08:11:32;9.17;;;3.93;;
4464;SDS011;2245;48.136;13.428;2023-03-23T08:13:59;9.87;;;3.60;;
4464;SDS011;2245;48.136;13.428;2023-03-23T08:16:27;11.57;;;3.37;;
4464;SDS011;2245;48.136;13.428;2023-03-23T08:18:54;6.00;;;3.37;;
4464;SDS011;2245;48.136;13.428;2023-03-23T08:21:22;7.33;;;3.20;;
4464;SDS011;2245;48.136;13.428;2023-03-23T08:23:48;6.80;;;3.90;;
4464;SDS011;2245;48.136;13.428;2023-03-23T08:26:15;3.37;;;3.07;;
4464;SDS011;2245;48.136;13.428;2023-03-23T08:28:42;4.27;;;3.03;;
4464;SDS011;2245;48.136;13.428;2023-03-23T08:31:10;30.53;;;5.90;;
4464;SDS011;2245;48.136;13.428;2023-03-23T08:33:39;12.83;;;7.00;;
4464;SDS011;2245;48.136;13.428;2023-03-23T08:36:07;7.77;;;5.90;;
4464;SDS011;2245;48.136;13.428;2023-03-23T08:38:34;22.63;;;5.30;;
4464;SDS011;2245;48.136;13.428;2023-03-23T08:41:02;11.37;;;4.20;;
4464;SDS011;2245;48.136;13.428;2023-03-23T08:43:30;15.20;;;6.00;;
4464;SDS011;2245;48.136;13.428;2023-03-23T08:45:57;8.40;;;4.03;;
4464;SDS011;2245;48.136;13.428;2023-03-23T08:48:25;7.03;;;3.93;;
4464;SDS011;2245;48.136;13.428;2023-03-23T08:50:54;9.90;;;4.33;;
4464;SDS011;2245;48.136;13.428;2023-03-23T08:53:21;15.57;;;5.73;;
4464;SDS011;2245;48.136;13.428;2023-03-23T08:55:48;17.10;;;9.10;;
4464;SDS011;2245;48.136;13.428;2023-03-23T08:58:15;17.67;;;11.63;;
4464;SDS011;2245;48.136;13.428;2023-03-23T09:00:42;28.73;;;15.83;;
4464;SDS011;2245;48.136;13.428;2023-03-23T09:03:10;26.00;;;10.70;;
4464;SDS011;2245;48.136;13.428;2023-03-23T09:05:38;13.03;;;8.73;;
4464;SDS011;2245;48.136;13.428;2023-03-23T09:08:12;7.20;;;5.20;;
4464;SDS011;2245;48.136;13.428;2023-03-23T09:10:39;8.93;;;6.60;;
4464;SDS011;2245;48.136;13.428;2023-03-23T09:13:06;12.70;;;6.50;;
4464;SDS011;2245;48.136;13.428;2023-03-23T09:15:33;11.37;;;4.60;;
4464;SDS011;2245;48.136;13.428;2023-03-23T09:18:00;10.57;;;6.27;;
4464;SDS011;2245;48.136;13.428;2023-03-23T09:20:27;17.43;;;13.83;;
4464;SDS011;2245;48.136;13.428;2023-03-23T09:22:55;16.83;;;15.03;;
4464;SDS011;2245;48.136;13.428;2023-03-23T09:25:25;9.90;;;4.80;;
4464;SDS011;2245;48.136;13.428;2023-03-23T09:27:54;4.47;;;3.70;;
4464;SDS011;2245;48.136;13.428;2023-03-23T09:30:23;9.37;;;5.83;;
4464;SDS011;2245;48.136;13.428;2023-03-23T09:32:51;7.73;;;6.10;;
4464;SDS011;2245;48.136;13.428;2023-03-23T09:35:18;9.23;;;5.17;;
4464;SDS011;2245;48.136;13.428;2023-03-23T09:37:46;5.73;;;4.60;;
4464;SDS011;2245;48.136;13.428;2023-03-23T09:40:15;5.53;;;3.90;;
4464;SDS011;2245;48.136;13.428;2023-03-23T09:42:49;5.90;;;2.87;;
4464;SDS011;2245;48.136;13.428;2023-03-23T09:45:33;4.17;;;3.20;;
4464;SDS011;2245;48.136;13.428;2023-03-23T09:48:08;7.23;;;3.47;;
4464;SDS011;2245;48.136;13.428;2023-03-23T09:50:47;6.63;;;3.30;;
4464;SDS011;2245;48.136;13.428;2023-03-23T09:53:16;6.60;;;3.00;;
4464;SDS011;2245;48.136;13.428;2023-03-23T09:55:47;6.53;;;3.10;;
4464;SDS011;2245;48.136;13.428;2023-03-23T09:58:18;5.40;;;3.47;;
4464;SDS011;2245;48.136;13.428;2023-03-23T10:00:51;5.50;;;2.60;;
4464;SDS011;2245;48.136;13.428;2023-03-23T10:03:23;8.80;;;4.03;;
4464;SDS011;2245;48.136;13.428;2023-03-23T10:05:53;5.43;;;4.13;;
4464;SDS011;2245;48.136;13.428;2023-03-23T10:08:21;7.57;;;3.33;;
4464;SDS011;2245;48.136;13.428;2023-03-23T10:10:52;5.20;;;2.83;;
4464;SDS011;2245;48.136;13.428;2023-03-23T10:13:28;6.63;;;3.90;;
4464;SDS011;2245;48.136;13.428;2023-03-23T10:16:01;14.27;;;4.73;;
4464;SDS011;2245;48.136;13.428;2023-03-23T10:18:30;8.57;;;5.73;;
4464;SDS011;2245;48.136;13.428;2023-03-23T10:21:02;8.63;;;4.70;;
4464;SDS011;2245;48.136;13.428;2023-03-23T10:26:21;5.63;;;2.27;;
4464;SDS011;2245;48.136;13.428;2023-03-23T10:29:07;7.40;;;3.53;;
4464;SDS011;2245;48.136;13.428;2023-03-23T10:31:39;9.10;;;2.73;;
4464;SDS011;2245;48.136;13.428;2023-03-23T10:34:08;7.27;;;4.10;;
4464;SDS011;2245;48.136;13.428;2023-03-23T10:36:40;4.03;;;2.70;;
4464;SDS011;2245;48.136;13.428;2023-03-23T10:39:16;7.37;;;3.33;;
4464;SDS011;2245;48.136;13.428;2023-03-23T10:41:44;12.50;;;4.67;;
4464;SDS011;2245;48.136;13.428;2023-03-23T10:44:14;6.40;;;4.70;;
4464;SDS011;2245;48.136;13.428;2023-03-23T10:46:45;6.33;;;3.17;;
4464;SDS011;2245;48.136;13.428;2023-03-23T10:49:15;8.27;;;3.20;;
4464;SDS011;2245;48.136;13.428;2023-03-23T10:51:47;26.00;;;3.93;;
4464;SDS011;2245;48.136;13.428;2023-03-23T10:54:26;4.60;;;3.20;;
4464;SDS011;2245;48.136;13.428;2023-03-23T10:56:53;17.63;;;14.53;;
4464;SDS011;2245;48.136;13.428;2023-03-23T10:59:26;3.20;;;2.37;;
4464;SDS011;2245;48.136;13.428;2023-03-23T11:01:55;3.90;;;1.83;;
4464;SDS011;2245;48.136;13.428;2023-03-23T11:04:22;7.60;;;1.67;;
4464;SDS011;2245;48.136;13.428;2023-03-23T11:06:52;4.93;;;3.00;;
4464;SDS011;2245;48.136;13.428;2023-03-23T11:09:21;1.43;;;1.30;;
4464;SDS011;2245;48.136;13.428;2023-03-23T11:12:00;2.43;;;1.87;;
4464;SDS011;2245;48.136;13.428;2023-03-23T11:14:29;3.13;;;1.73;;
4464;SDS011;2245;48.136;13.428;2023-03-23T11:16:58;4.53;;;1.17;;
4464;SDS011;2245;48.136;13.428;2023-03-23T11:19:27;3.07;;;1.53;;
4464;SDS011;2245;48.136;13.428;2023-03-23T11:21:57;23.73;;;1.97;;
4464;SDS011;2245;48.136;13.428;2023-03-23T11:24:31;4.17;;;1.33;;
4464;SDS011;2245;48.136;13.428;2023-03-23T11:27:00;2.83;;;1.60;;
4464;SDS011;2245;48.136;13.428;2023-03-23T11:29:29;5.90;;;1.60;;
4464;SDS011;2245;48.136;13.428;2023-03-23T11:32:02;4.33;;;1.47;;
4464;SDS011;2245;48.136;13.428;2023-03-23T11:34:32;2.40;;;1.33;;
4464;SDS011;2245;48.136;13.428;2023-03-23T11:37:01;2.70;;;1.27;;
4464;SDS011;2245;48.136;13.428;2023-03-23T11:39:30;16.93;;;1.80;;
4464;SDS011;2245;48.136;13.428;2023-03-23T11:41:59;1.53;;;1.40;;
4464;SDS011;2245;48.136;13.428;2023-03-23T11:44:33;11.33;;;3.60;;
4464;SDS011;2245;48.136;13.428;2023-03-23T11:47:02;5.20;;;1.57;;
4464;SDS011;2245;48.136;13.428;2023-03-23T11:49:38;3.30;;;1.63;;
4464;SDS011;2245;48.136;13.428;2023-03-23T11:52:10;4.97;;;1.50;;
4464;SDS011;2245;48.136;13.428;2023-03-23T11:54:40;2.50;;;1.43;;
4464;SDS011;2245;48.136;13.428;2023-03-23T11:57:11;4.43;;;1.97;;
4464;SDS011;2245;48.136;13.428;2023-03-23T11:59:40;5.17;;;2.30;;
4464;SDS011;2245;48.136;13.428;2023-03-23T12:02:15;3.10;;;2.00;;
4464;SDS011;2245;48.136;13.428;2023-03-23T12:04:57;1.80;;;1.70;;
4464;SDS011;2245;48.136;13.428;2023-03-23T12:07:32;2.53;;;1.27;;
4464;SDS011;2245;48.136;13.428;2023-03-23T12:10:20;1.83;;;1.43;;
4464;SDS011;2245;48.136;13.428;2023-03-23T12:12:54;3.67;;;1.73;;
4464;SDS011;2245;48.136;13.428;2023-03-23T12:15:29;2.97;;;1.57;;
4464;SDS011;2245;48.136;13.428;2023-03-23T12:18:01;2.33;;;2.07;;
4464;SDS011;2245;48.136;13.428;2023-03-23T12:20:44;12.00;;;8.77;;
4464;SDS011;2245;48.136;13.428;2023-03-23T12:23:20;8.83;;;2.47;;
4464;SDS011;2245;48.136;13.428;2023-03-23T12:26:02;2.07;;;1.87;;
4464;SDS011;2245;48.136;13.428;2023-03-23T12:28:46;1.77;;;1.40;;
4464;SDS011;2245;48.136;13.428;2023-03-23T12:31:21;2.00;;;1.40;;
4464;SDS011;2245;48.136;13.428;2023-03-23T12:33:54;7.13;;;2.00;;
4464;SDS011;2245;48.136;13.428;2023-03-23T12:36:25;7.53;;;2.17;;
4464;SDS011;2245;48.136;13.428;2023-03-23T12:41:59;4.67;;;2.57;;
4464;SDS011;2245;48.136;13.428;2023-03-23T12:44:31;2.33;;;1.70;;
4464;SDS011;2245;48.136;13.428;2023-03-23T12:47:10;2.87;;;1.90;;
4464;SDS011;2245;48.136;13.428;2023-03-23T12:49:54;5.00;;;2.00;;
4464;SDS011;2245;48.136;13.428;2023-03-23T12:52:23;2.47;;;1.57;;
4464;SDS011;2245;48.136;13.428;2023-03-23T12:54:54;4.43;;;2.40;;
4464;SDS011;2245;48.136;13.428;2023-03-23T12:57:29;4.93;;;1.80;;
4464;SDS011;2245;48.136;13.428;2023-03-23T12:59:59;2.33;;;1.90;;
4464;SDS011;2245;48.136;13.428;2023-03-23T13:02:39;3.00;;;1.63;;
4464;SDS011;2245;48.136;13.428;2023-03-23T13:05:09;1.80;;;1.70;;
4464;SDS011;2245;48.136;13.428;2023-03-23T13:07:42;16.17;;;2.97;;
4464;SDS011;2245;48.136;13.428;2023-03-23T13:10:15;4.80;;;2.23;;
4464;SDS011;2245;48.136;13.428;2023-03-23T13:12:46;4.20;;;1.90;;
4464;SDS011;2245;48.136;13.428;2023-03-23T13:15:18;7.03;;;1.77;;
4464;SDS011;2245;48.136;13.428;2023-03-23T13:17:52;5.20;;;2.20;;
4464;SDS011;2245;48.136;13.428;2023-03-23T13:20:35;10.33;;;2.23;;
4464;SDS011;2245;48.136;13.428;2023-03-23T13:23:09;6.60;;;2.63;;
4464;SDS011;2245;48.136;13.428;2023-03-23T13:25:43;3.43;;;1.47;;
4464;SDS011;2245;48.136;13.428;2023-03-23T13:28:14;2.50;;;2.00;;
4464;SDS011;2245;48.136;13.428;2023-03-23T13:30:55;2.43;;;2.07;;
4464;SDS011;2245;48.136;13.428;2023-03-23T13:33:24;3.20;;;2.17;;
4464;SDS011;2245;48.136;13.428;2023-03-23T13:35:51;4.93;;;2.10;;
4464;SDS011;2245;48.136;13.428;2023-03-23T13:38:19;8.90;;;2.20;;
4464;SDS011;2245;48.136;13.428;2023-03-23T13:40:48;3.50;;;2.27;;
4464;SDS011;2245;48.136;13.428;2023-03-23T13:43:24;10.00;;;2.80;;
4464;SDS011;2245;48.136;13.428;2023-03-23T13:45:53;2.63;;;2.00;;
4464;SDS011;2245;48.136;13.428;2023-03-23T13:48:22;2.20;;;2.00;;
4464;SDS011;2245;48.136;13.428;2023-03-23T13:50:54;3.17;;;2.40;;
4464;SDS011;2245;48.136;13.428;2023-03-23T13:53:24;4.70;;;3.20;;
4464;SDS011;2245;48.136;13.428;2023-03-23T13:56:07;4.80;;;2.37;;
4464;SDS011;2245;48.136;13.428;2023-03-23T13:58:46;6.10;;;2.77;;
4464;SDS011;2245;48.136;13.428;2023-03-23T14:01:15;4.53;;;2.40;;
4464;SDS011;2245;48.136;13.428;2023-03-23T14:03:46;4.60;;;2.57;;
4464;SDS011;2245;48.136;13.428;2023-03-23T14:06:16;15.93;;;3.90;;
4464;SDS011;2245;48.136;13.428;2023-03-23T14:08:47;12.93;;;4.70;;
4464;SDS011;2245;48.136;13.428;2023-03-23T14:11:17;3.20;;;2.83;;
4464;SDS011;2245;48.136;13.428;2023-03-23T14:13:48;3.53;;;2.10;;
4464;SDS011;2245;48.136;13.428;2023-03-23T14:16:21;2.67;;;2.47;;
4464;SDS011;2245;48.136;13.428;2023-03-23T14:18:51;6.00;;;3.00;;
4464;SDS011;2245;48.136;13.428;2023-03-23T14:21:25;10.17;;;3.93;;
4464;SDS011;2245;48.136;13.428;2023-03-23T14:23:59;5.23;;;3.07;;
4464;SDS011;2245;48.136;13.428;2023-03-23T14:26:27;7.83;;;3.50;;
4464;SDS011;2245;48.136;13.428;2023-03-23T14:28:54;6.13;;;3.77;;
4464;SDS011;2245;48.136;13.428;2023-03-23T14:31:22;20.73;;;5.67;;
4464;SDS011;2245;48.136;13.428;2023-03-23T14:33:53;5.83;;;3.53;;
4464;SDS011;2245;48.136;13.428;2023-03-23T14:36:21;5.53;;;3.00;;
4464;SDS011;2245;48.136;13.428;2023-03-23T14:38:54;10.30;;;4.23;;
4464;SDS011;2245;48.136;13.428;2023-03-23T14:41:23;6.93;;;3.60;;
4464;SDS011;2245;48.136;13.428;2023-03-23T14:43:50;5.83;;;4.00;;
4464;SDS011;2245;48.136;13.428;2023-03-23T14:46:17;15.37;;;4.70;;
4464;SDS011;2245;48.136;13.428;2023-03-23T14:48:44;4.70;;;3.50;;
4464;SDS011;2245;48.136;13.428;2023-03-23T14:51:17;8.17;;;3.17;;
4464;SDS011;2245;48.136;13.428;2023-03-23T14:53:45;5.33;;;3.73;;
4464;SDS011;2245;48.136;13.428;2023-03-23T14:56:16;8.23;;;3.63;;
4464;SDS011;2245;48.136;13.428;2023-03-23T14:58:46;13.00;;;4.50;;
4464;SDS011;2245;48.136;13.428;2023-03-23T15:01:14;13.53;;;5.60;;
4464;SDS011;2245;48.136;13.428;2023-03-23T15:03:46;8.70;;;4.30;;
4464;SDS011;2245;48.136;13.428;2023-03-23T15:06:20;8.10;;;3.83;;
4464;SDS011;2245;48.136;13.428;2023-03-23T15:08:48;8.33;;;3.80;;
4464;SDS011;2245;48.136;13.428;2023-03-23T15:11:21;10.57;;;4.30;;
4464;SDS011;2245;48.136;13.428;2023-03-23T15:13:50;16.10;;;3.90;;
4464;SDS011;2245;48.136;13.428;2023-03-23T15:16:21;10.57;;;4.83;;
4464;SDS011;2245;48.136;13.428;2023-03-23T15:18:50;5.20;;;2.80;;
4464;SDS011;2245;48.136;13.428;2023-03-23T15:21:26;14.83;;;3.80;;